sensor_id;sensor_type;location;lat;lon;timestamp;P1;durP1;ratioP1;P2;durP2;ratioP2
20984;SDS011;10651;47.552;7.606;2022-12-15T06:23:51;22.67;;;15.60;;
20984;SDS011;10651;47.552;7.606;2022-12-15T06:26:18;22.07;;;15.37;;
20984;SDS011;10651;47.552;7.606;2022-12-15T06:28:49;24.37;;;16.93;;
20984;SDS011;10651;47.552;7.606;2022-12-15T06:31:16;22.33;;;17.07;;
20984;SDS011;10651;47.552;7.606;2022-12-15T06:33:46;23.67;;;17.50;;
20984;SDS011;10651;47.552;7.606;2022-12-15T06:36:14;26.10;;;20.60;;
20984;SDS011;10651;47.552;7.606;2022-12-15T06:38:41;27.63;;;20.27;;
20984;SDS011;10651;47.552;7.606;2022-12-15T06:41:08;29.10;;;21.35;;
20984;SDS011;10651;47.552;7.606;2022-12-15T06:43:35;28.70;;;19.87;;
20984;SDS011;10651;47.552;7.606;2022-12-15T06:46:02;29.13;;;19.43;;
20984;SDS011;10651;47.552;7.606;2022-12-15T06:48:28;27.23;;;18.50;;
20984;SDS011;10651;47.552;7.606;2022-12-15T06:50:54;28.33;;;20.00;;
20984;SDS011;10651;47.552;7.606;2022-12-15T06:53:21;29.30;;;19.80;;
20984;SDS011;10651;47.552;7.606;2022-12-15T06:55:48;29.90;;;20.07;;
20984;SDS011;10651;47.552;7.606;2022-12-15T06:58:14;28.67;;;20.60;;
20984;SDS011;10651;47.552;7.606;2022-12-15T07:00:42;29.50;;;20.87;;
20984;SDS011;10651;47.552;7.606;2022-12-15T07:03:09;31.97;;;21.30;;
20984;SDS011;10651;47.552;7.606;2022-12-15T07:05:40;31.90;;;21.50;;
20984;SDS011;10651;47.552;7.606;2022-12-15T07:08:07;34.83;;;21.07;;
20984;SDS011;10651;47.552;7.606;2022-12-15T07:10:36;35.07;;;22.20;;
20984;SDS011;10651;47.552;7.606;2022-12-15T07:13:04;33.17;;;22.33;;
20984;SDS011;10651;47.552;7.606;2022-12-15T07:15:30;27.67;;;20.63;;
20984;SDS011;10651;47.552;7.606;2022-12-15T07:17:56;28.77;;;20.07;;
20984;SDS011;10651;47.552;7.606;2022-12-15T07:20:22;30.20;;;21.10;;
20984;SDS011;10651;47.552;7.606;2022-12-15T07:22:49;29.53;;;19.73;;
20984;SDS011;10651;47.552;7.606;2022-12-15T07:25:16;31.13;;;21.37;;
20984;SDS011;10651;47.552;7.606;2022-12-15T07:27:42;38.03;;;21.40;;
20984;SDS011;10651;47.552;7.606;2022-12-15T07:30:09;29.40;;;20.63;;
20984;SDS011;10651;47.552;7.606;2022-12-15T07:32:36;30.27;;;20.93;;
20984;SDS011;10651;47.552;7.606;2022-12-15T07:35:02;33.40;;;22.60;;
20984;SDS011;10651;47.552;7.606;2022-12-15T07:37:29;35.70;;;23.23;;
20984;SDS011;10651;47.552;7.606;2022-12-15T07:39:55;32.93;;;23.47;;
20984;SDS011;10651;47.552;7.606;2022-12-15T07:42:21;32.97;;;21.80;;
20984;SDS011;10651;47.552;7.606;2022-12-15T07:44:47;33.77;;;22.03;;
20984;SDS011;10651;47.552;7.606;2022-12-15T07:47:12;32.90;;;23.40;;
20984;SDS011;10651;47.552;7.606;2022-12-15T07:49:38;30.53;;;20.87;;
20984;SDS011;10651;47.552;7.606;2022-12-15T07:52:04;32.50;;;21.90;;
20984;SDS011;10651;47.552;7.606;2022-12-15T07:54:30;34.27;;;23.27;;
20984;SDS011;10651;47.552;7.606;2022-12-15T07:56:56;35.43;;;22.17;;
20984;SDS011;10651;47.552;7.606;2022-12-15T07:59:24;34.60;;;22.60;;
20984;SDS011;10651;47.552;7.606;2022-12-15T08:01:50;36.70;;;22.03;;
20984;SDS011;10651;47.552;7.606;2022-12-15T08:04:16;33.83;;;22.47;;
20984;SDS011;10651;47.552;7.606;2022-12-15T08:06:42;36.70;;;23.63;;
20984;SDS011;10651;47.552;7.606;2022-12-15T08:09:09;39.73;;;23.37;;
20984;SDS011;10651;47.552;7.606;2022-12-15T08:11:40;38.10;;;23.13;;
20984;SDS011;10651;47.552;7.606;2022-12-15T08:14:07;37.13;;;23.40;;
20984;SDS011;10651;47.552;7.606;2022-12-15T08:16:32;42.07;;;24.30;;
20984;SDS011;10651;47.552;7.606;2022-12-15T08:19:00;34.73;;;23.43;;
20984;SDS011;10651;47.552;7.606;2022-12-15T08:21:27;37.30;;;23.83;;
20984;SDS011;10651;47.552;7.606;2022-12-15T08:23:53;36.90;;;22.77;;
20984;SDS011;10651;47.552;7.606;2022-12-15T08:26:19;34.40;;;23.57;;
20984;SDS011;10651;47.552;7.606;2022-12-15T08:28:44;36.73;;;24.33;;
20984;SDS011;10651;47.552;7.606;2022-12-15T08:31:18;42.07;;;26.30;;
20984;SDS011;10651;47.552;7.606;2022-12-15T08:33:45;54.43;;;35.17;;
20984;SDS011;10651;47.552;7.606;2022-12-15T08:36:11;42.30;;;26.13;;
20984;SDS011;10651;47.552;7.606;2022-12-15T08:38:38;41.23;;;26.77;;
20984;SDS011;10651;47.552;7.606;2022-12-15T08:41:18;40.83;;;27.17;;
20984;SDS011;10651;47.552;7.606;2022-12-15T08:43:47;41.60;;;25.70;;
20984;SDS011;10651;47.552;7.606;2022-12-15T08:46:17;40.40;;;24.53;;
20984;SDS011;10651;47.552;7.606;2022-12-15T08:48:45;45.57;;;26.23;;
20984;SDS011;10651;47.552;7.606;2022-12-15T08:51:11;40.10;;;26.57;;
20984;SDS011;10651;47.552;7.606;2022-12-15T08:53:37;38.60;;;25.30;;
20984;SDS011;10651;47.552;7.606;2022-12-15T08:56:03;42.20;;;26.40;;
20984;SDS011;10651;47.552;7.606;2022-12-15T08:58:31;41.47;;;26.93;;
20984;SDS011;10651;47.552;7.606;2022-12-15T09:01:00;42.83;;;26.73;;
20984;SDS011;10651;47.552;7.606;2022-12-15T09:03:27;44.03;;;27.73;;
20984;SDS011;10651;47.552;7.606;2022-12-15T09:05:53;46.50;;;27.73;;
20984;SDS011;10651;47.552;7.606;2022-12-15T09:08:19;41.63;;;26.13;;
20984;SDS011;10651;47.552;7.606;2022-12-15T09:10:46;45.37;;;27.73;;
20984;SDS011;10651;47.552;7.606;2022-12-15T09:13:11;46.37;;;27.17;;
20984;SDS011;10651;47.552;7.606;2022-12-15T09:15:37;43.97;;;27.70;;
20984;SDS011;10651;47.552;7.606;2022-12-15T09:18:07;71.57;;;38.43;;
20984;SDS011;10651;47.552;7.606;2022-12-15T09:20:33;48.63;;;28.63;;
20984;SDS011;10651;47.552;7.606;2022-12-15T09:22:58;52.63;;;29.23;;
20984;SDS011;10651;47.552;7.606;2022-12-15T09:25:24;50.60;;;28.90;;
20984;SDS011;10651;47.552;7.606;2022-12-15T09:27:50;51.30;;;30.77;;
20984;SDS011;10651;47.552;7.606;2022-12-15T09:30:15;50.03;;;30.70;;
20984;SDS011;10651;47.552;7.606;2022-12-15T09:32:41;47.23;;;29.87;;
20984;SDS011;10651;47.552;7.606;2022-12-15T09:35:07;47.23;;;28.57;;
20984;SDS011;10651;47.552;7.606;2022-12-15T09:37:33;49.17;;;29.67;;
20984;SDS011;10651;47.552;7.606;2022-12-15T09:39:59;48.20;;;29.60;;
20984;SDS011;10651;47.552;7.606;2022-12-15T09:42:28;49.63;;;30.10;;
20984;SDS011;10651;47.552;7.606;2022-12-15T09:47:55;52.37;;;31.60;;
20984;SDS011;10651;47.552;7.606;2022-12-15T09:50:32;50.73;;;31.77;;
20984;SDS011;10651;47.552;7.606;2022-12-15T09:52:59;55.50;;;30.90;;
20984;SDS011;10651;47.552;7.606;2022-12-15T09:55:31;53.70;;;32.07;;
20984;SDS011;10651;47.552;7.606;2022-12-15T09:58:02;54.40;;;32.33;;
20984;SDS011;10651;47.552;7.606;2022-12-15T10:00:51;57.27;;;32.93;;
20984;SDS011;10651;47.552;7.606;2022-12-15T10:03:39;72.60;;;33.60;;
20984;SDS011;10651;47.552;7.606;2022-12-15T10:06:20;55.20;;;31.67;;
20984;SDS011;10651;47.552;7.606;2022-12-15T10:09:21;55.63;;;31.90;;
20984;SDS011;10651;47.552;7.606;2022-12-15T10:14:41;70.30;;;31.03;;
20984;SDS011;10651;47.552;7.606;2022-12-15T10:17:24;55.17;;;31.70;;
20984;SDS011;10651;47.552;7.606;2022-12-15T10:23:01;55.43;;;30.97;;
20984;SDS011;10651;47.552;7.606;2022-12-15T10:25:36;52.30;;;31.80;;
20984;SDS011;10651;47.552;7.606;2022-12-15T10:30:51;55.97;;;33.60;;
20984;SDS011;10651;47.552;7.606;2022-12-15T10:33:24;54.80;;;32.33;;
20984;SDS011;10651;47.552;7.606;2022-12-15T10:35:53;55.43;;;33.23;;
20984;SDS011;10651;47.552;7.606;2022-12-15T10:38:24;56.57;;;33.70;;
20984;SDS011;10651;47.552;7.606;2022-12-15T10:41:08;56.93;;;33.77;;
20984;SDS011;10651;47.552;7.606;2022-12-15T10:43:44;60.10;;;33.43;;
20984;SDS011;10651;47.552;7.606;2022-12-15T10:46:18;56.77;;;34.63;;
20984;SDS011;10651;47.552;7.606;2022-12-15T10:48:50;57.07;;;34.53;;
20984;SDS011;10651;47.552;7.606;2022-12-15T10:53:47;59.90;;;35.80;;
20984;SDS011;10651;47.552;7.606;2022-12-15T10:56:33;60.50;;;34.70;;
20984;SDS011;10651;47.552;7.606;2022-12-15T11:04:43;64.47;;;34.73;;
20984;SDS011;10651;47.552;7.606;2022-12-15T11:07:25;59.97;;;34.90;;
20984;SDS011;10651;47.552;7.606;2022-12-15T11:09:59;59.93;;;36.20;;
20984;SDS011;10651;47.552;7.606;2022-12-15T11:12:27;61.87;;;36.63;;
20984;SDS011;10651;47.552;7.606;2022-12-15T11:17:55;60.67;;;34.50;;
20984;SDS011;10651;47.552;7.606;2022-12-15T11:20:34;61.40;;;35.13;;
20984;SDS011;10651;47.552;7.606;2022-12-15T11:23:04;60.07;;;35.43;;
20984;SDS011;10651;47.552;7.606;2022-12-15T11:25:40;62.23;;;35.07;;
20984;SDS011;10651;47.552;7.606;2022-12-15T11:28:17;59.23;;;32.90;;
20984;SDS011;10651;47.552;7.606;2022-12-15T11:30:54;61.13;;;35.20;;
20984;SDS011;10651;47.552;7.606;2022-12-15T11:33:25;64.60;;;37.67;;
20984;SDS011;10651;47.552;7.606;2022-12-15T11:35:56;64.07;;;37.33;;
20984;SDS011;10651;47.552;7.606;2022-12-15T11:41:11;61.07;;;36.60;;
20984;SDS011;10651;47.552;7.606;2022-12-15T11:46:20;75.23;;;37.13;;
20984;SDS011;10651;47.552;7.606;2022-12-15T12:02:42;66.17;;;38.47;;
20984;SDS011;10651;47.552;7.606;2022-12-15T12:08:00;73.17;;;40.87;;
20984;SDS011;10651;47.552;7.606;2022-12-15T12:10:49;72.60;;;41.20;;
20984;SDS011;10651;47.552;7.606;2022-12-15T12:18:51;78.37;;;42.30;;
20984;SDS011;10651;47.552;7.606;2022-12-15T12:21:24;76.23;;;41.80;;
20984;SDS011;10651;47.552;7.606;2022-12-15T12:26:31;84.63;;;43.63;;
20984;SDS011;10651;47.552;7.606;2022-12-15T12:29:05;73.87;;;41.83;;
20984;SDS011;10651;47.552;7.606;2022-12-15T12:31:42;86.83;;;42.00;;
20984;SDS011;10651;47.552;7.606;2022-12-15T12:36:47;84.30;;;42.10;;
20984;SDS011;10651;47.552;7.606;2022-12-15T12:39:17;78.13;;;42.20;;
20984;SDS011;10651;47.552;7.606;2022-12-15T12:41:51;79.13;;;43.07;;
20984;SDS011;10651;47.552;7.606;2022-12-15T12:44:35;82.90;;;42.17;;
20984;SDS011;10651;47.552;7.606;2022-12-15T12:47:06;83.17;;;42.37;;
20984;SDS011;10651;47.552;7.606;2022-12-15T12:49:43;81.60;;;43.47;;
20984;SDS011;10651;47.552;7.606;2022-12-15T12:52:21;82.60;;;43.47;;
20984;SDS011;10651;47.552;7.606;2022-12-15T12:54:56;86.47;;;43.97;;
20984;SDS011;10651;47.552;7.606;2022-12-15T13:02:42;86.70;;;43.13;;
20984;SDS011;10651;47.552;7.606;2022-12-15T13:05:21;84.83;;;43.43;;
20984;SDS011;10651;47.552;7.606;2022-12-15T13:10:37;81.93;;;43.77;;
20984;SDS011;10651;47.552;7.606;2022-12-15T13:16:17;78.23;;;42.53;;
20984;SDS011;10651;47.552;7.606;2022-12-15T13:24:54;81.23;;;44.17;;
20984;SDS011;10651;47.552;7.606;2022-12-15T13:27:17;87.93;;;43.53;;
20984;SDS011;10651;47.552;7.606;2022-12-15T13:30:00;88.40;;;46.03;;
20984;SDS011;10651;47.552;7.606;2022-12-15T13:32:36;85.77;;;43.60;;
20984;SDS011;10651;47.552;7.606;2022-12-15T13:37:46;83.00;;;43.63;;
20984;SDS011;10651;47.552;7.606;2022-12-15T13:40:29;87.43;;;44.63;;
20984;SDS011;10651;47.552;7.606;2022-12-15T13:45:30;85.27;;;44.23;;
20984;SDS011;10651;47.552;7.606;2022-12-15T13:53:57;91.20;;;45.97;;
20984;SDS011;10651;47.552;7.606;2022-12-15T14:07:46;94.53;;;45.50;;
20984;SDS011;10651;47.552;7.606;2022-12-15T14:15:55;101.67;;;48.60;;
20984;SDS011;10651;47.552;7.606;2022-12-15T14:18:41;88.90;;;44.77;;
20984;SDS011;10651;47.552;7.606;2022-12-15T14:21:23;87.13;;;43.53;;
20984;SDS011;10651;47.552;7.606;2022-12-15T14:23:54;101.93;;;48.20;;
20984;SDS011;10651;47.552;7.606;2022-12-15T14:26:24;90.03;;;42.87;;
20984;SDS011;10651;47.552;7.606;2022-12-15T14:28:59;86.27;;;43.80;;
20984;SDS011;10651;47.552;7.606;2022-12-15T14:31:26;107.93;;;47.17;;
20984;SDS011;10651;47.552;7.606;2022-12-15T14:34:29;99.80;;;49.03;;
20984;SDS011;10651;47.552;7.606;2022-12-15T14:36:55;93.03;;;46.93;;
20984;SDS011;10651;47.552;7.606;2022-12-15T14:39:29;102.33;;;49.27;;
20984;SDS011;10651;47.552;7.606;2022-12-15T14:42:00;98.27;;;48.30;;
20984;SDS011;10651;47.552;7.606;2022-12-15T14:44:28;98.77;;;46.27;;
20984;SDS011;10651;47.552;7.606;2022-12-15T14:47:15;89.53;;;45.93;;
20984;SDS011;10651;47.552;7.606;2022-12-15T14:49:51;92.50;;;44.53;;
20984;SDS011;10651;47.552;7.606;2022-12-15T14:52:37;99.47;;;45.50;;
20984;SDS011;10651;47.552;7.606;2022-12-15T14:58:01;94.27;;;46.27;;
20984;SDS011;10651;47.552;7.606;2022-12-15T15:01:19;90.40;;;42.90;;
20984;SDS011;10651;47.552;7.606;2022-12-15T15:03:54;91.10;;;44.43;;
20984;SDS011;10651;47.552;7.606;2022-12-15T15:06:21;91.07;;;44.83;;
20984;SDS011;10651;47.552;7.606;2022-12-15T15:08:54;94.63;;;43.10;;
20984;SDS011;10651;47.552;7.606;2022-12-15T15:11:22;89.27;;;42.57;;
20984;SDS011;10651;47.552;7.606;2022-12-15T15:13:57;89.80;;;42.33;;
20984;SDS011;10651;47.552;7.606;2022-12-15T15:16:24;86.53;;;42.70;;
20984;SDS011;10651;47.552;7.606;2022-12-15T15:18:51;92.63;;;45.67;;
20984;SDS011;10651;47.552;7.606;2022-12-15T15:21:21;96.67;;;45.90;;
20984;SDS011;10651;47.552;7.606;2022-12-15T15:24:03;90.40;;;44.70;;
20984;SDS011;10651;47.552;7.606;2022-12-15T15:26:49;91.90;;;52.42;;
20984;SDS011;10651;47.552;7.606;2022-12-15T15:32:05;90.60;;;46.13;;
20984;SDS011;10651;47.552;7.606;2022-12-15T15:34:31;95.07;;;45.77;;
20984;SDS011;10651;47.552;7.606;2022-12-15T15:36:57;92.27;;;45.90;;
20984;SDS011;10651;47.552;7.606;2022-12-15T15:39:26;88.90;;;44.83;;
20984;SDS011;10651;47.552;7.606;2022-12-15T15:41:51;92.40;;;43.50;;
20984;SDS011;10651;47.552;7.606;2022-12-15T15:44:17;99.83;;;46.07;;
20984;SDS011;10651;47.552;7.606;2022-12-15T15:46:44;97.37;;;47.20;;
20984;SDS011;10651;47.552;7.606;2022-12-15T15:49:13;96.93;;;54.75;;
20984;SDS011;10651;47.552;7.606;2022-12-15T15:51:42;101.55;;;53.13;;
20984;SDS011;10651;47.552;7.606;2022-12-15T15:54:12;91.80;;;48.03;;
20984;SDS011;10651;47.552;7.606;2022-12-15T15:56:40;91.57;;;46.50;;
20984;SDS011;10651;47.552;7.606;2022-12-15T15:59:24;95.93;;;46.63;;
20984;SDS011;10651;47.552;7.606;2022-12-15T16:01:51;93.83;;;46.67;;
20984;SDS011;10651;47.552;7.606;2022-12-15T16:04:22;88.03;;;45.23;;
20984;SDS011;10651;47.552;7.606;2022-12-15T16:06:48;88.20;;;45.60;;
20984;SDS011;10651;47.552;7.606;2022-12-15T16:09:15;97.43;;;45.07;;
20984;SDS011;10651;47.552;7.606;2022-12-15T16:11:44;93.13;;;45.43;;
20984;SDS011;10651;47.552;7.606;2022-12-15T16:14:11;99.33;;;46.17;;
20984;SDS011;10651;47.552;7.606;2022-12-15T16:16:38;96.07;;;45.47;;
20984;SDS011;10651;47.552;7.606;2022-12-15T16:19:05;103.90;;;46.07;;
20984;SDS011;10651;47.552;7.606;2022-12-15T16:21:31;103.57;;;49.27;;
20984;SDS011;10651;47.552;7.606;2022-12-15T16:23:59;107.67;;;48.63;;
20984;SDS011;10651;47.552;7.606;2022-12-15T16:26:40;97.93;;;46.93;;
20984;SDS011;10651;47.552;7.606;2022-12-15T16:29:15;105.63;;;46.30;;
20984;SDS011;10651;47.552;7.606;2022-12-15T16:31:42;103.13;;;49.87;;
20984;SDS011;10651;47.552;7.606;2022-12-15T16:34:12;107.87;;;50.60;;
20984;SDS011;10651;47.552;7.606;2022-12-15T16:53:48;106.90;;;50.57;;
20984;SDS011;10651;47.552;7.606;2022-12-15T16:56:49;97.03;;;46.43;;
20984;SDS011;10651;47.552;7.606;2022-12-15T16:59:17;95.50;;;46.00;;
20984;SDS011;10651;47.552;7.606;2022-12-15T17:04:48;105.30;;;47.23;;
20984;SDS011;10651;47.552;7.606;2022-12-15T17:07:14;129.77;;;50.53;;
20984;SDS011;10651;47.552;7.606;2022-12-15T17:09:43;111.57;;;51.67;;
20984;SDS011;10651;47.552;7.606;2022-12-15T17:12:11;128.73;;;51.37;;
20984;SDS011;10651;47.552;7.606;2022-12-15T17:14:41;120.47;;;52.97;;
20984;SDS011;10651;47.552;7.606;2022-12-15T17:17:14;114.30;;;53.60;;
20984;SDS011;10651;47.552;7.606;2022-12-15T17:19:42;130.87;;;54.50;;
20984;SDS011;10651;47.552;7.606;2022-12-15T17:22:10;142.30;;;56.30;;
20984;SDS011;10651;47.552;7.606;2022-12-15T17:24:39;124.57;;;53.73;;
20984;SDS011;10651;47.552;7.606;2022-12-15T17:27:10;127.43;;;53.43;;
20984;SDS011;10651;47.552;7.606;2022-12-15T17:29:50;117.27;;;49.97;;
20984;SDS011;10651;47.552;7.606;2022-12-15T17:32:19;116.13;;;50.90;;
20984;SDS011;10651;47.552;7.606;2022-12-15T17:35:26;114.57;;;51.30;;
20984;SDS011;10651;47.552;7.606;2022-12-15T17:38:02;126.07;;;51.53;;
20984;SDS011;10651;47.552;7.606;2022-12-15T17:40:28;132.10;;;53.83;;
20984;SDS011;10651;47.552;7.606;2022-12-15T17:42:54;115.67;;;49.10;;
20984;SDS011;10651;47.552;7.606;2022-12-15T17:45:20;132.97;;;54.10;;
20984;SDS011;10651;47.552;7.606;2022-12-15T17:47:48;124.93;;;52.80;;
20984;SDS011;10651;47.552;7.606;2022-12-15T17:50:14;127.63;;;51.80;;
20984;SDS011;10651;47.552;7.606;2022-12-15T17:52:42;135.17;;;53.60;;
20984;SDS011;10651;47.552;7.606;2022-12-15T17:57:42;128.60;;;51.97;;
20984;SDS011;10651;47.552;7.606;2022-12-15T18:03:04;129.20;;;50.67;;
20984;SDS011;10651;47.552;7.606;2022-12-15T18:05:32;121.07;;;52.87;;
20984;SDS011;10651;47.552;7.606;2022-12-15T18:11:24;119.07;;;51.63;;
20984;SDS011;10651;47.552;7.606;2022-12-15T18:13:52;117.23;;;49.50;;
20984;SDS011;10651;47.552;7.606;2022-12-15T18:16:18;126.73;;;52.70;;
20984;SDS011;10651;47.552;7.606;2022-12-15T18:18:44;117.10;;;51.47;;
20984;SDS011;10651;47.552;7.606;2022-12-15T18:21:16;117.93;;;54.23;;
20984;SDS011;10651;47.552;7.606;2022-12-15T18:23:44;112.93;;;50.77;;
20984;SDS011;10651;47.552;7.606;2022-12-15T18:26:12;107.97;;;50.03;;
20984;SDS011;10651;47.552;7.606;2022-12-15T18:28:38;109.63;;;49.63;;
20984;SDS011;10651;47.552;7.606;2022-12-15T18:33:37;95.10;;;44.67;;
20984;SDS011;10651;47.552;7.606;2022-12-15T18:36:03;97.13;;;45.90;;
20984;SDS011;10651;47.552;7.606;2022-12-15T18:38:29;101.88;;;52.67;;
20984;SDS011;10651;47.552;7.606;2022-12-15T18:40:56;100.33;;;47.80;;
20984;SDS011;10651;47.552;7.606;2022-12-15T18:43:24;96.67;;;46.33;;
20984;SDS011;10651;47.552;7.606;2022-12-15T18:45:53;96.73;;;47.00;;
20984;SDS011;10651;47.552;7.606;2022-12-15T18:48:20;92.77;;;44.17;;
20984;SDS011;10651;47.552;7.606;2022-12-15T18:50:48;97.27;;;43.00;;
20984;SDS011;10651;47.552;7.606;2022-12-15T18:56:01;82.47;;;39.00;;
20984;SDS011;10651;47.552;7.606;2022-12-15T18:58:33;85.07;;;40.77;;
20984;SDS011;10651;47.552;7.606;2022-12-15T19:01:01;84.50;;;39.93;;
20984;SDS011;10651;47.552;7.606;2022-12-15T19:03:28;98.10;;;41.03;;
20984;SDS011;10651;47.552;7.606;2022-12-15T19:08:29;77.73;;;38.53;;
20984;SDS011;10651;47.552;7.606;2022-12-15T19:11:22;80.40;;;38.87;;
20984;SDS011;10651;47.552;7.606;2022-12-15T19:13:58;77.87;;;39.20;;
20984;SDS011;10651;47.552;7.606;2022-12-15T19:16:25;74.93;;;37.70;;
20984;SDS011;10651;47.552;7.606;2022-12-15T19:18:51;73.73;;;36.23;;
20984;SDS011;10651;47.552;7.606;2022-12-15T19:21:36;78.07;;;39.77;;
20984;SDS011;10651;47.552;7.606;2022-12-15T19:24:28;75.03;;;37.97;;
20984;SDS011;10651;47.552;7.606;2022-12-15T19:27:14;76.63;;;36.03;;
20984;SDS011;10651;47.552;7.606;2022-12-15T19:29:47;67.60;;;35.27;;
20984;SDS011;10651;47.552;7.606;2022-12-15T19:32:13;70.70;;;37.07;;
20984;SDS011;10651;47.552;7.606;2022-12-15T19:34:40;69.00;;;37.97;;
20984;SDS011;10651;47.552;7.606;2022-12-15T19:37:11;82.20;;;40.50;;
20984;SDS011;10651;47.552;7.606;2022-12-15T19:39:43;74.17;;;40.00;;
20984;SDS011;10651;47.552;7.606;2022-12-15T19:45:12;75.27;;;39.57;;
20984;SDS011;10651;47.552;7.606;2022-12-15T19:47:40;81.97;;;41.17;;
20984;SDS011;10651;47.552;7.606;2022-12-15T19:50:14;69.53;;;37.73;;
20984;SDS011;10651;47.552;7.606;2022-12-15T19:52:58;72.03;;;38.63;;
20984;SDS011;10651;47.552;7.606;2022-12-15T19:55:30;70.80;;;38.87;;
20984;SDS011;10651;47.552;7.606;2022-12-15T19:58:02;78.60;;;38.40;;
20984;SDS011;10651;47.552;7.606;2022-12-15T20:00:47;70.37;;;38.07;;
20984;SDS011;10651;47.552;7.606;2022-12-15T20:03:13;70.00;;;39.37;;
20984;SDS011;10651;47.552;7.606;2022-12-15T20:05:39;74.97;;;46.33;;
20984;SDS011;10651;47.552;7.606;2022-12-15T20:08:05;75.13;;;41.13;;
20984;SDS011;10651;47.552;7.606;2022-12-15T20:10:31;75.47;;;40.43;;
20984;SDS011;10651;47.552;7.606;2022-12-15T20:12:57;71.60;;;39.67;;
20984;SDS011;10651;47.552;7.606;2022-12-15T20:15:23;72.07;;;40.07;;
20984;SDS011;10651;47.552;7.606;2022-12-15T20:17:50;67.43;;;38.93;;
20984;SDS011;10651;47.552;7.606;2022-12-15T20:20:20;71.37;;;36.53;;
20984;SDS011;10651;47.552;7.606;2022-12-15T20:22:48;66.60;;;39.07;;
20984;SDS011;10651;47.552;7.606;2022-12-15T20:25:22;65.53;;;38.43;;
20984;SDS011;10651;47.552;7.606;2022-12-15T20:27:54;66.53;;;38.17;;
20984;SDS011;10651;47.552;7.606;2022-12-15T20:30:25;62.40;;;33.87;;
20984;SDS011;10651;47.552;7.606;2022-12-15T20:32:53;63.63;;;36.27;;
20984;SDS011;10651;47.552;7.606;2022-12-15T20:35:22;73.68;;;43.92;;
20984;SDS011;10651;47.552;7.606;2022-12-15T20:37:48;75.57;;;42.13;;
20984;SDS011;10651;47.552;7.606;2022-12-15T20:43:15;73.03;;;40.03;;
20984;SDS011;10651;47.552;7.606;2022-12-15T20:45:45;67.53;;;37.93;;
20984;SDS011;10651;47.552;7.606;2022-12-15T20:48:35;73.73;;;39.70;;
20984;SDS011;10651;47.552;7.606;2022-12-15T20:51:26;77.20;;;39.83;;
20984;SDS011;10651;47.552;7.606;2022-12-15T20:53:58;74.70;;;40.60;;
20984;SDS011;10651;47.552;7.606;2022-12-15T20:56:45;72.80;;;39.33;;
20984;SDS011;10651;47.552;7.606;2022-12-15T20:59:13;69.80;;;38.40;;
20984;SDS011;10651;47.552;7.606;2022-12-15T21:01:52;70.87;;;35.90;;
20984;SDS011;10651;47.552;7.606;2022-12-15T21:04:30;64.33;;;36.87;;
20984;SDS011;10651;47.552;7.606;2022-12-15T21:06:59;67.93;;;35.80;;
20984;SDS011;10651;47.552;7.606;2022-12-15T21:09:25;59.63;;;35.33;;
20984;SDS011;10651;47.552;7.606;2022-12-15T21:11:58;68.83;;;35.90;;
20984;SDS011;10651;47.552;7.606;2022-12-15T21:14:26;69.53;;;37.13;;
20984;SDS011;10651;47.552;7.606;2022-12-15T21:16:58;61.73;;;35.73;;
20984;SDS011;10651;47.552;7.606;2022-12-15T21:19:26;70.50;;;37.07;;
20984;SDS011;10651;47.552;7.606;2022-12-15T21:21:53;67.03;;;36.13;;
20984;SDS011;10651;47.552;7.606;2022-12-15T21:24:31;73.60;;;37.30;;
20984;SDS011;10651;47.552;7.606;2022-12-15T21:27:00;71.50;;;37.93;;
20984;SDS011;10651;47.552;7.606;2022-12-15T21:29:34;70.30;;;38.03;;
20984;SDS011;10651;47.552;7.606;2022-12-15T21:32:00;75.67;;;40.47;;
20984;SDS011;10651;47.552;7.606;2022-12-15T21:34:35;70.60;;;39.17;;
20984;SDS011;10651;47.552;7.606;2022-12-15T21:37:04;78.50;;;37.60;;
20984;SDS011;10651;47.552;7.606;2022-12-15T21:39:45;67.77;;;36.60;;
20984;SDS011;10651;47.552;7.606;2022-12-15T21:42:11;74.97;;;40.53;;
20984;SDS011;10651;47.552;7.606;2022-12-15T21:44:50;68.77;;;37.47;;
20984;SDS011;10651;47.552;7.606;2022-12-15T21:50:44;75.50;;;38.13;;
20984;SDS011;10651;47.552;7.606;2022-12-15T21:53:11;77.63;;;40.63;;
20984;SDS011;10651;47.552;7.606;2022-12-15T21:55:42;84.70;;;41.97;;
20984;SDS011;10651;47.552;7.606;2022-12-15T21:58:23;85.07;;;41.60;;
20984;SDS011;10651;47.552;7.606;2022-12-15T22:00:54;79.07;;;41.03;;
20984;SDS011;10651;47.552;7.606;2022-12-15T22:03:23;91.90;;;43.67;;
20984;SDS011;10651;47.552;7.606;2022-12-15T22:05:49;85.93;;;41.03;;
20984;SDS011;10651;47.552;7.606;2022-12-15T22:08:41;95.03;;;42.20;;
20984;SDS011;10651;47.552;7.606;2022-12-15T22:11:20;81.27;;;40.50;;
20984;SDS011;10651;47.552;7.606;2022-12-15T22:13:49;97.83;;;43.63;;
20984;SDS011;10651;47.552;7.606;2022-12-15T22:16:28;95.43;;;46.37;;
20984;SDS011;10651;47.552;7.606;2022-12-15T22:18:55;90.77;;;42.90;;
20984;SDS011;10651;47.552;7.606;2022-12-15T22:21:26;92.63;;;44.83;;
20984;SDS011;10651;47.552;7.606;2022-12-15T22:24:00;90.87;;;43.80;;
20984;SDS011;10651;47.552;7.606;2022-12-15T22:26:26;97.33;;;43.67;;
20984;SDS011;10651;47.552;7.606;2022-12-15T22:28:55;95.03;;;46.10;;
20984;SDS011;10651;47.552;7.606;2022-12-15T22:31:27;90.30;;;43.40;;
20984;SDS011;10651;47.552;7.606;2022-12-15T22:33:58;103.93;;;48.07;;
20984;SDS011;10651;47.552;7.606;2022-12-15T22:36:26;98.77;;;47.10;;
20984;SDS011;10651;47.552;7.606;2022-12-15T22:38:55;98.83;;;44.93;;
20984;SDS011;10651;47.552;7.606;2022-12-15T22:41:21;105.00;;;46.37;;
20984;SDS011;10651;47.552;7.606;2022-12-15T22:43:49;105.70;;;46.33;;
20984;SDS011;10651;47.552;7.606;2022-12-15T22:46:20;101.27;;;46.57;;
20984;SDS011;10651;47.552;7.606;2022-12-15T22:48:54;96.40;;;44.23;;
20984;SDS011;10651;47.552;7.606;2022-12-15T22:51:20;101.97;;;48.73;;
20984;SDS011;10651;47.552;7.606;2022-12-15T22:53:46;97.50;;;47.93;;
20984;SDS011;10651;47.552;7.606;2022-12-15T22:56:25;104.30;;;46.33;;
20984;SDS011;10651;47.552;7.606;2022-12-15T22:59:06;98.47;;;44.03;;
20984;SDS011;10651;47.552;7.606;2022-12-15T23:01:40;101.97;;;48.10;;
20984;SDS011;10651;47.552;7.606;2022-12-15T23:04:09;104.33;;;46.73;;
20984;SDS011;10651;47.552;7.606;2022-12-15T23:06:35;98.90;;;44.97;;
20984;SDS011;10651;47.552;7.606;2022-12-15T23:09:01;94.87;;;46.63;;
